createdAt,value
2017-10-04T00:00:31.192Z,0
2017-10-04T00:01:31.202Z,0
2017-10-04T00:02:31.749Z,0
2017-10-04T00:03:31.380Z,0
2017-10-04T00:04:31.435Z,0
2017-10-04T00:05:31.072Z,0
2017-10-04T00:06:31.342Z,0
2017-10-04T00:07:31.033Z,0
2017-10-04T00:08:31.407Z,0
2017-10-04T00:09:31.364Z,0
2017-10-04T00:10:31.285Z,0
2017-10-04T00:11:31.251Z,0
2017-10-04T00:12:31.242Z,0
2017-10-04T00:13:31.254Z,0
2017-10-04T00:14:31.504Z,0
2017-10-04T00:15:31.163Z,0
2017-10-04T00:16:31.162Z,0
2017-10-04T00:17:30.901Z,0
2017-10-04T00:18:31.451Z,0
2017-10-04T00:19:31.418Z,0
2017-10-04T00:20:31.380Z,0
2017-10-04T00:21:31.150Z,0
2017-10-04T00:22:31.045Z,0
2017-10-04T00:23:31.027Z,0
2017-10-04T00:24:30.712Z,0
2017-10-04T00:25:30.680Z,0
2017-10-04T00:26:31.272Z,0
2017-10-04T00:27:31.269Z,0
2017-10-04T00:28:31.255Z,0
2017-10-04T00:29:31.004Z,0
2017-10-04T00:30:31.204Z,0
2017-10-04T00:31:31.196Z,0
2017-10-04T00:32:31.171Z,0
2017-10-04T00:33:31.164Z,0
2017-10-04T00:34:31.152Z,0
2017-10-04T00:35:31.108Z,0
2017-10-04T00:36:31.100Z,0
2017-10-04T00:37:30.766Z,0
2017-10-04T00:38:30.414Z,0
2017-10-04T00:39:29.790Z,0
2017-10-04T00:40:30.410Z,0
2017-10-04T00:41:30.478Z,0
2017-10-04T00:42:30.972Z,0
2017-10-04T00:43:30.937Z,0
2017-10-04T00:44:30.686Z,0
2017-10-04T00:45:30.611Z,0
2017-10-04T00:46:29.949Z,0
2017-10-04T00:47:30.913Z,0
2017-10-04T00:48:30.858Z,0
2017-10-04T00:49:30.521Z,0
2017-10-04T00:50:30.489Z,0
2017-10-04T00:51:30.791Z,0
2017-10-04T00:52:30.480Z,0
2017-10-04T00:53:30.161Z,0
2017-10-04T00:54:30.731Z,0
2017-10-04T00:55:30.418Z,0
2017-10-04T00:56:30.707Z,0
2017-10-04T00:57:30.680Z,0
2017-10-04T00:58:30.670Z,0
2017-10-04T00:59:30.086Z,0
2017-10-04T01:00:30.022Z,0
2017-10-04T01:01:30.049Z,0
2017-10-04T01:02:29.961Z,0
2017-10-04T01:03:30.570Z,0
2017-10-04T01:04:30.562Z,0
2017-10-04T01:05:30.212Z,0
2017-10-04T01:06:30.201Z,0
2017-10-04T01:07:29.865Z,0
2017-10-04T01:08:30.186Z,0
2017-10-04T01:09:30.458Z,0
2017-10-04T01:10:30.114Z,0
2017-10-04T01:11:29.546Z,0
2017-10-04T01:12:30.377Z,0
2017-10-04T01:13:30.074Z,0
2017-10-04T01:14:30.340Z,0
2017-10-04T01:15:30.340Z,0
2017-10-04T01:16:30.315Z,0
2017-10-04T01:17:30.280Z,0
2017-10-04T01:18:29.985Z,0
2017-10-04T01:19:29.962Z,0
2017-10-04T01:20:29.401Z,0
2017-10-04T01:21:30.220Z,0
2017-10-04T01:22:29.904Z,0
2017-10-04T01:23:30.179Z,0
2017-10-04T01:24:29.843Z,0
2017-10-04T01:25:29.825Z,0
2017-10-04T01:26:29.900Z,0
2017-10-04T01:27:30.114Z,0
2017-10-04T01:28:29.481Z,0
2017-10-04T01:29:30.057Z,0
2017-10-04T01:30:29.740Z,0
2017-10-04T01:31:30.025Z,0
2017-10-04T01:32:29.716Z,0
2017-10-04T01:33:29.439Z,0
2017-10-04T01:34:29.340Z,0
2017-10-04T01:35:29.313Z,0
2017-10-04T01:36:29.630Z,0
2017-10-04T01:37:29.921Z,0
2017-10-04T01:38:28.973Z,0
2017-10-04T01:39:29.872Z,0
2017-10-04T01:40:29.221Z,0
2017-10-04T01:41:29.864Z,0
2017-10-04T01:42:28.929Z,0
2017-10-04T01:43:29.810Z,0
2017-10-04T01:44:29.145Z,0
2017-10-04T01:45:29.450Z,0
2017-10-04T01:46:29.740Z,0
2017-10-04T01:47:28.782Z,0
2017-10-04T01:48:28.808Z,0
2017-10-04T01:49:29.380Z,0
2017-10-04T01:50:29.644Z,0
2017-10-04T01:51:29.380Z,0
2017-10-04T01:52:29.310Z,0
2017-10-04T01:53:28.982Z,0
2017-10-04T01:54:29.263Z,0
2017-10-04T01:55:28.959Z,0
2017-10-04T01:56:29.554Z,0
2017-10-04T01:57:28.944Z,0
2017-10-04T01:58:29.198Z,0
2017-10-04T01:59:28.872Z,0
2017-10-04T02:00:29.483Z,0
2017-10-04T02:01:29.154Z,0
2017-10-04T02:02:28.853Z,0
2017-10-04T02:03:28.473Z,0
2017-10-04T02:04:29.391Z,0
2017-10-04T02:05:28.753Z,0
2017-10-04T02:06:28.731Z,0
2017-10-04T02:07:29.350Z,0
2017-10-04T02:08:28.701Z,0
2017-10-04T02:09:28.679Z,0
2017-10-04T02:10:28.988Z,0
2017-10-04T02:11:28.950Z,0
2017-10-04T02:12:28.932Z,0
2017-10-04T02:13:28.915Z,0
2017-10-04T02:14:28.891Z,0
2017-10-04T02:15:28.926Z,0
2017-10-04T02:16:28.561Z,0
2017-10-04T02:17:28.846Z,0
2017-10-04T02:18:28.508Z,0
2017-10-04T02:19:29.094Z,0
2017-10-04T02:20:28.453Z,0
2017-10-04T02:21:28.790Z,0
2017-10-04T02:22:28.729Z,0
2017-10-04T02:23:28.400Z,0
2017-10-04T02:24:29.012Z,0
2017-10-04T02:25:28.669Z,0
2017-10-04T02:26:28.986Z,0
2017-10-04T02:27:28.936Z,0
2017-10-04T02:28:28.305Z,0
2017-10-04T02:29:28.607Z,0
2017-10-04T02:30:28.598Z,0
2017-10-04T02:31:28.588Z,0
2017-10-04T02:32:28.856Z,0
2017-10-04T02:33:28.545Z,0
2017-10-04T02:34:28.808Z,0
2017-10-04T02:35:28.171Z,0
2017-10-04T02:36:28.588Z,0
2017-10-04T02:37:28.452Z,0
2017-10-04T02:38:28.126Z,0
2017-10-04T02:39:28.714Z,0
2017-10-04T02:40:27.760Z,0
2017-10-04T02:41:28.677Z,0
2017-10-04T02:42:28.670Z,0
2017-10-04T02:43:28.322Z,0
2017-10-04T02:44:28.627Z,0
2017-10-04T02:45:28.599Z,0
2017-10-04T02:46:28.585Z,0
2017-10-04T02:47:28.272Z,0
2017-10-04T02:48:27.928Z,0
2017-10-04T02:49:28.521Z,0
2017-10-04T02:50:28.220Z,0
2017-10-04T02:51:27.564Z,0
2017-10-04T02:52:28.162Z,0
2017-10-04T02:53:27.891Z,0
2017-10-04T02:54:28.419Z,0
2017-10-04T02:55:27.570Z,0
2017-10-04T02:56:27.501Z,0
2017-10-04T02:57:28.061Z,0
2017-10-04T02:58:28.363Z,0
2017-10-04T02:59:28.067Z,0
2017-10-04T03:00:28.312Z,0
2017-10-04T03:01:28.307Z,0
2017-10-04T03:02:27.946Z,0
2017-10-04T03:03:28.266Z,0
2017-10-04T03:04:28.227Z,0
2017-10-04T03:05:27.588Z,0
2017-10-04T03:06:27.571Z,0
2017-10-04T03:07:27.572Z,0
2017-10-04T03:08:27.844Z,0
2017-10-04T03:09:28.166Z,0
2017-10-04T03:10:27.820Z,0
2017-10-04T03:11:27.809Z,0
2017-10-04T03:12:27.449Z,0
2017-10-04T03:13:27.433Z,0
2017-10-04T03:14:27.811Z,0
2017-10-04T03:15:27.753Z,0
2017-10-04T03:16:27.689Z,0
2017-10-04T03:17:27.041Z,0
2017-10-04T03:18:27.411Z,0
2017-10-04T03:19:27.648Z,0
2017-10-04T03:20:27.433Z,0
2017-10-04T03:21:27.671Z,0
2017-10-04T03:22:27.279Z,0
2017-10-04T03:23:27.582Z,0
2017-10-04T03:24:27.541Z,0
2017-10-04T03:25:26.891Z,0
2017-10-04T03:26:27.488Z,0
2017-10-04T03:27:27.554Z,0
2017-10-04T03:28:26.878Z,0
2017-10-04T03:29:27.751Z,0
2017-10-04T03:30:27.433Z,0
2017-10-04T03:31:27.426Z,0
2017-10-04T03:32:27.884Z,0
2017-10-04T03:33:27.140Z,0
2017-10-04T03:34:27.062Z,0
2017-10-04T03:35:26.690Z,0
2017-10-04T03:36:27.321Z,0
2017-10-04T03:37:26.980Z,0
2017-10-04T03:38:27.353Z,0
2017-10-04T03:39:26.939Z,0
2017-10-04T03:40:27.550Z,0
2017-10-04T03:41:27.523Z,0
2017-10-04T03:42:27.504Z,0
2017-10-04T03:43:26.893Z,0
2017-10-04T03:44:26.850Z,0
2017-10-04T03:45:26.822Z,0
2017-10-04T03:46:27.458Z,0
2017-10-04T03:47:26.878Z,0
2017-10-04T03:48:27.386Z,0
2017-10-04T03:49:27.103Z,0
2017-10-04T03:50:27.351Z,0
2017-10-04T03:51:26.704Z,0
2017-10-04T03:52:27.092Z,0
2017-10-04T03:53:26.700Z,0
2017-10-04T03:54:26.329Z,0
2017-10-04T03:55:26.940Z,0
2017-10-04T03:56:26.609Z,0
2017-10-04T03:57:26.294Z,0
2017-10-04T03:58:26.259Z,0
2017-10-04T03:59:26.236Z,0
2017-10-04T04:00:26.549Z,0
2017-10-04T04:01:26.501Z,0
2017-10-04T04:02:26.488Z,0
2017-10-04T04:03:26.471Z,0
2017-10-04T04:04:27.064Z,0
2017-10-04T04:05:27.122Z,0
2017-10-04T04:06:26.411Z,0
2017-10-04T04:07:27.029Z,0
2017-10-04T04:08:26.770Z,0
2017-10-04T04:09:26.446Z,0
2017-10-04T04:10:26.354Z,0
2017-10-04T04:11:26.649Z,0
2017-10-04T04:12:26.322Z,0
2017-10-04T04:13:26.603Z,0
2017-10-04T04:14:26.251Z,0
2017-10-04T04:15:26.584Z,0
2017-10-04T04:16:26.538Z,0
2017-10-04T04:17:26.521Z,0
2017-10-04T04:18:26.500Z,0
2017-10-04T04:19:26.473Z,0
2017-10-04T04:20:26.457Z,0
2017-10-04T04:21:26.749Z,0
2017-10-04T04:22:26.410Z,0
2017-10-04T04:23:26.392Z,0
2017-10-04T04:24:26.371Z,0
2017-10-04T04:25:26.360Z,0
2017-10-04T04:26:26.651Z,0
2017-10-04T04:27:25.999Z,0
2017-10-04T04:28:26.283Z,0
2017-10-04T04:29:26.280Z,0
2017-10-04T04:30:26.561Z,0
2017-10-04T04:31:26.237Z,0
2017-10-04T04:32:25.944Z,0
2017-10-04T04:33:26.552Z,0
2017-10-04T04:34:26.513Z,0
2017-10-04T04:35:25.841Z,0
2017-10-04T04:36:26.460Z,0
2017-10-04T04:37:26.446Z,0
2017-10-04T04:38:26.411Z,0
2017-10-04T04:39:26.392Z,0
2017-10-04T04:40:26.393Z,0
2017-10-04T04:41:26.370Z,0
2017-10-04T04:42:26.341Z,0
2017-10-04T04:43:26.060Z,0
2017-10-04T04:44:26.034Z,0
2017-10-04T04:45:25.674Z,0
2017-10-04T04:46:25.953Z,0
2017-10-04T04:47:25.983Z,0
2017-10-04T04:48:25.978Z,0
2017-10-04T04:49:25.901Z,0
2017-10-04T04:50:25.862Z,0
2017-10-04T04:51:25.850Z,0
2017-10-04T04:52:25.844Z,0
2017-10-04T04:53:25.194Z,0
2017-10-04T04:54:26.109Z,0
2017-10-04T04:55:26.323Z,0
2017-10-04T04:56:26.059Z,0
2017-10-04T04:57:24.797Z,0
2017-10-04T04:58:25.729Z,0
2017-10-04T04:59:25.781Z,0
2017-10-04T05:00:25.980Z,0
2017-10-04T05:01:25.751Z,0
2017-10-04T05:02:25.936Z,0
2017-10-04T05:03:25.698Z,0
2017-10-04T05:04:25.910Z,0
2017-10-04T05:05:25.893Z,0
2017-10-04T05:06:25.271Z,0
2017-10-04T05:07:25.531Z,0
2017-10-04T05:08:25.827Z,0
2017-10-04T05:09:25.540Z,0
2017-10-04T05:10:25.482Z,0
2017-10-04T05:11:25.222Z,0
2017-10-04T05:12:25.119Z,0
2017-10-04T05:13:25.460Z,0
2017-10-04T05:14:25.091Z,0
2017-10-04T05:15:25.688Z,0
2017-10-04T05:16:25.047Z,0
2017-10-04T05:17:25.649Z,0
2017-10-04T05:18:25.325Z,0
2017-10-04T05:19:25.614Z,0
2017-10-04T05:20:25.294Z,0
2017-10-04T05:21:25.352Z,0
2017-10-04T05:22:24.926Z,0
2017-10-04T05:23:25.233Z,0
2017-10-04T05:24:25.499Z,0
2017-10-04T05:25:24.887Z,0
2017-10-04T05:26:25.180Z,0
2017-10-04T05:27:25.462Z,0
2017-10-04T05:28:25.679Z,0
2017-10-04T05:29:25.350Z,0
2017-10-04T05:30:24.780Z,0
2017-10-04T05:31:25.378Z,0
2017-10-04T05:32:24.734Z,0
2017-10-04T05:33:25.076Z,0
2017-10-04T05:34:24.400Z,0
2017-10-04T05:35:24.993Z,0
2017-10-04T05:36:24.681Z,0
2017-10-04T05:37:24.650Z,0
2017-10-04T05:38:24.618Z,0
2017-10-04T05:39:24.314Z,0
2017-10-04T05:40:25.198Z,0
2017-10-04T05:41:24.877Z,0
2017-10-04T05:42:25.169Z,0
2017-10-04T05:43:24.844Z,0
2017-10-04T05:44:24.849Z,5
2017-10-04T05:45:24.909Z,5
2017-10-04T05:46:25.088Z,5
2017-10-04T05:47:25.072Z,5
2017-10-04T05:48:24.852Z,5
2017-10-04T05:49:25.039Z,5
2017-10-04T05:50:24.395Z,5
2017-10-04T05:51:24.358Z,5
2017-10-04T05:52:24.030Z,5
2017-10-04T05:53:24.331Z,5
2017-10-04T05:54:24.642Z,10
2017-10-04T05:55:24.298Z,10
2017-10-04T05:56:24.585Z,10
2017-10-04T05:57:24.568Z,10
2017-10-04T05:58:24.539Z,15
2017-10-04T05:59:24.810Z,15
2017-10-04T06:00:24.198Z,15
2017-10-04T06:01:24.810Z,15
2017-10-04T06:02:24.150Z,20
2017-10-04T06:03:24.138Z,20
2017-10-04T06:04:24.126Z,20
2017-10-04T06:05:24.498Z,25
2017-10-04T06:06:24.130Z,25
2017-10-04T06:07:24.371Z,30
2017-10-04T06:08:24.444Z,30
2017-10-04T06:09:23.923Z,35
2017-10-04T06:10:24.636Z,35
2017-10-04T06:11:24.302Z,35
2017-10-04T06:12:23.966Z,40
2017-10-04T06:13:24.388Z,40
2017-10-04T06:14:23.934Z,45
2017-10-04T06:15:24.218Z,45
2017-10-04T06:16:24.210Z,45
2017-10-04T06:17:24.160Z,45
2017-10-04T06:18:24.480Z,50
2017-10-04T06:19:23.951Z,55
2017-10-04T06:20:24.439Z,55
2017-10-04T06:21:24.088Z,60
2017-10-04T06:22:24.110Z,65
2017-10-04T06:23:24.091Z,70
2017-10-04T06:24:23.405Z,75
2017-10-04T06:25:24.097Z,80
2017-10-04T06:26:24.002Z,85
2017-10-04T06:27:23.999Z,85
2017-10-04T06:28:23.979Z,90
2017-10-04T06:29:24.081Z,95
2017-10-04T06:30:24.259Z,95
2017-10-04T06:31:24.218Z,105
2017-10-04T06:32:23.907Z,115
2017-10-04T06:33:24.182Z,150
2017-10-04T06:34:23.945Z,125
2017-10-04T06:35:23.979Z,115
2017-10-04T06:36:23.545Z,140
2017-10-04T06:37:23.489Z,195
2017-10-04T06:38:23.760Z,225
2017-10-04T06:39:23.856Z,200
2017-10-04T06:40:23.795Z,175
2017-10-04T06:41:24.041Z,185
2017-10-04T06:42:24.023Z,205
2017-10-04T06:43:23.446Z,155
2017-10-04T06:44:23.998Z,185
2017-10-04T06:45:23.650Z,185
2017-10-04T06:46:23.948Z,130
2017-10-04T06:47:23.932Z,110
2017-10-04T06:48:23.947Z,110
2017-10-04T06:49:23.919Z,110
2017-10-04T06:50:23.864Z,115
2017-10-04T06:51:23.600Z,120
2017-10-04T06:52:23.824Z,120
2017-10-04T06:53:23.808Z,135
2017-10-04T06:54:23.795Z,140
2017-10-04T06:55:23.570Z,145
2017-10-04T06:56:23.138Z,160
2017-10-04T06:57:23.419Z,170
2017-10-04T06:58:23.451Z,220
2017-10-04T06:59:23.405Z,270
2017-10-04T07:00:23.068Z,245
2017-10-04T07:01:23.352Z,195
2017-10-04T07:02:23.030Z,195
2017-10-04T07:03:23.644Z,205
2017-10-04T07:04:23.616Z,260
2017-10-04T07:05:23.279Z,335
2017-10-04T07:06:23.250Z,195
2017-10-04T07:07:23.680Z,160
2017-10-04T07:08:23.526Z,95
2017-10-04T07:09:23.521Z,90
2017-10-04T07:10:23.262Z,80
2017-10-04T07:11:23.492Z,80
2017-10-04T07:12:23.171Z,85
2017-10-04T07:13:22.819Z,80
2017-10-04T07:14:22.830Z,105
2017-10-04T07:15:23.107Z,80
2017-10-04T07:16:23.401Z,75
2017-10-04T07:17:23.058Z,85
2017-10-04T07:18:22.740Z,70
2017-10-04T07:19:23.318Z,70
2017-10-04T07:20:23.032Z,75
2017-10-04T07:21:22.701Z,85
2017-10-04T07:22:23.270Z,100
2017-10-04T07:23:22.961Z,90
2017-10-04T07:24:22.955Z,105
2017-10-04T07:25:22.628Z,95
2017-10-04T07:26:22.279Z,110
2017-10-04T07:27:22.927Z,100
2017-10-04T07:28:22.870Z,120
2017-10-04T07:29:22.842Z,115
2017-10-04T07:30:22.841Z,105
2017-10-04T07:31:22.957Z,100
2017-10-04T07:32:23.106Z,100
2017-10-04T07:33:22.820Z,105
2017-10-04T07:34:22.748Z,130
2017-10-04T07:35:22.752Z,130
2017-10-04T07:36:22.775Z,120
2017-10-04T07:37:22.703Z,115
2017-10-04T07:38:22.990Z,125
2017-10-04T07:39:22.702Z,115
2017-10-04T07:40:22.949Z,105
2017-10-04T07:41:22.947Z,95
2017-10-04T07:42:22.679Z,85
2017-10-04T07:43:22.894Z,80
2017-10-04T07:44:21.959Z,75
2017-10-04T07:45:22.279Z,70
2017-10-04T07:46:22.550Z,70
2017-10-04T07:47:22.219Z,70
2017-10-04T07:48:22.810Z,70
2017-10-04T07:49:22.518Z,70
2017-10-04T07:50:22.318Z,70
2017-10-04T07:51:22.452Z,65
2017-10-04T07:52:22.124Z,65
2017-10-04T07:53:22.719Z,70
2017-10-04T07:54:22.701Z,70
2017-10-04T07:55:22.068Z,70
2017-10-04T07:56:22.379Z,70
2017-10-04T07:57:22.349Z,70
2017-10-04T07:58:22.634Z,70
2017-10-04T07:59:22.007Z,70
2017-10-04T08:00:22.582Z,70
2017-10-04T08:01:22.603Z,70
2017-10-04T08:02:21.960Z,70
2017-10-04T08:03:21.927Z,70
2017-10-04T08:04:21.919Z,70
2017-10-04T08:05:21.568Z,70
2017-10-04T08:06:22.465Z,80
2017-10-04T08:07:21.848Z,80
2017-10-04T08:08:22.450Z,85
2017-10-04T08:09:21.821Z,90
2017-10-04T08:10:22.119Z,90
2017-10-04T08:11:21.759Z,90
2017-10-04T08:12:21.769Z,90
2017-10-04T08:13:22.041Z,95
2017-10-04T08:14:22.012Z,85
2017-10-04T08:15:22.105Z,80
2017-10-04T08:16:21.990Z,75
2017-10-04T08:17:21.665Z,70
2017-10-04T08:18:21.969Z,75
2017-10-04T08:19:21.749Z,80
2017-10-04T08:20:21.910Z,80
2017-10-04T08:21:22.205Z,85
2017-10-04T08:22:22.211Z,90
2017-10-04T08:23:21.562Z,95
2017-10-04T08:24:21.927Z,105
2017-10-04T08:25:21.588Z,110
2017-10-04T08:26:22.117Z,110
2017-10-04T08:27:21.824Z,115
2017-10-04T08:28:21.757Z,130
2017-10-04T08:29:21.499Z,125
2017-10-04T08:30:21.701Z,130
2017-10-04T08:31:21.768Z,105
2017-10-04T08:32:21.696Z,100
2017-10-04T08:33:21.682Z,105
2017-10-04T08:34:21.645Z,125
2017-10-04T08:35:22.049Z,115
2017-10-04T08:36:21.311Z,125
2017-10-04T08:37:21.666Z,130
2017-10-04T08:38:21.624Z,195
2017-10-04T08:39:21.247Z,365
2017-10-04T08:40:21.989Z,375
2017-10-04T08:41:21.841Z,355
2017-10-04T08:42:21.824Z,355
2017-10-04T08:43:21.472Z,285
2017-10-04T08:44:21.540Z,500
2017-10-04T08:45:21.772Z,530
2017-10-04T08:46:21.750Z,425
2017-10-04T08:47:21.751Z,435
2017-10-04T08:48:21.721Z,370
2017-10-04T08:49:21.717Z,210
2017-10-04T08:50:21.684Z,145
2017-10-04T08:51:21.049Z,145
2017-10-04T08:52:21.021Z,165
2017-10-04T08:53:21.442Z,170
2017-10-04T08:54:21.753Z,190
2017-10-04T08:55:21.728Z,205
2017-10-04T08:56:21.587Z,170
2017-10-04T08:57:21.568Z,150
2017-10-04T08:58:21.605Z,130
2017-10-04T08:59:20.901Z,130
2017-10-04T09:00:20.870Z,165
2017-10-04T09:01:21.179Z,415
2017-10-04T09:02:21.160Z,405
2017-10-04T09:03:21.632Z,395
2017-10-04T09:04:20.810Z,285
2017-10-04T09:05:21.110Z,220
2017-10-04T09:06:21.417Z,195
2017-10-04T09:07:21.605Z,215
2017-10-04T09:08:21.371Z,265
2017-10-04T09:09:21.033Z,160
2017-10-04T09:10:21.021Z,115
2017-10-04T09:11:21.040Z,110
2017-10-04T09:12:21.000Z,100
2017-10-04T09:13:21.445Z,80
2017-10-04T09:14:21.290Z,70
2017-10-04T09:15:20.960Z,65
2017-10-04T09:16:20.929Z,65
2017-10-04T09:17:20.912Z,60
2017-10-04T09:18:21.261Z,65
2017-10-04T09:19:20.271Z,65
2017-10-04T09:20:20.869Z,60
2017-10-04T09:21:21.163Z,55
2017-10-04T09:22:20.493Z,50
2017-10-04T09:23:20.180Z,45
2017-10-04T09:24:21.100Z,35
2017-10-04T09:25:21.182Z,35
2017-10-04T09:26:20.431Z,35
2017-10-04T09:27:21.051Z,35
2017-10-04T09:28:20.709Z,40
2017-10-04T09:29:20.489Z,40
2017-10-04T09:30:21.077Z,45
2017-10-04T09:31:20.651Z,50
2017-10-04T09:32:20.991Z,55
2017-10-04T09:33:20.700Z,60
2017-10-04T09:34:20.910Z,70
2017-10-04T09:35:20.341Z,75
2017-10-04T09:36:20.290Z,90
2017-10-04T09:37:20.950Z,105
2017-10-04T09:38:20.915Z,115
2017-10-04T09:39:20.532Z,115
2017-10-04T09:40:19.859Z,105
2017-10-04T09:41:20.884Z,95
2017-10-04T09:42:20.840Z,95
2017-10-04T09:43:20.131Z,95
2017-10-04T09:44:20.429Z,110
2017-10-04T09:45:20.128Z,105
2017-10-04T09:46:20.469Z,105
2017-10-04T09:47:20.692Z,110
2017-10-04T09:48:20.052Z,125
2017-10-04T09:49:20.421Z,145
2017-10-04T09:50:20.359Z,160
2017-10-04T09:51:20.662Z,155
2017-10-04T09:52:20.619Z,150
2017-10-04T09:53:20.610Z,145
2017-10-04T09:54:20.358Z,135
2017-10-04T09:55:20.291Z,135
2017-10-04T09:56:20.230Z,125
2017-10-04T09:57:20.544Z,120
2017-10-04T09:58:20.532Z,125
2017-10-04T09:59:20.183Z,125
2017-10-04T10:00:20.473Z,140
2017-10-04T10:01:20.150Z,140
2017-10-04T10:02:20.102Z,140
2017-10-04T10:03:20.089Z,145
2017-10-04T10:04:20.427Z,140
2017-10-04T10:05:20.392Z,120
2017-10-04T10:06:20.418Z,110
2017-10-04T10:07:19.708Z,95
2017-10-04T10:08:20.343Z,90
2017-10-04T10:09:20.050Z,85
2017-10-04T10:10:19.972Z,80
2017-10-04T10:11:20.281Z,75
2017-10-04T10:12:20.349Z,75
2017-10-04T10:13:19.741Z,65
2017-10-04T10:14:19.891Z,60
2017-10-04T10:15:20.190Z,55
2017-10-04T10:16:20.181Z,50
2017-10-04T10:17:19.846Z,50
2017-10-04T10:18:19.840Z,50
2017-10-04T10:19:19.185Z,50
2017-10-04T10:20:19.476Z,50
2017-10-04T10:21:19.770Z,55
2017-10-04T10:22:19.762Z,60
2017-10-04T10:23:19.733Z,65
2017-10-04T10:24:20.051Z,80
2017-10-04T10:25:19.376Z,85
2017-10-04T10:26:19.385Z,85
2017-10-04T10:27:19.666Z,85
2017-10-04T10:28:19.344Z,85
2017-10-04T10:29:19.989Z,95
2017-10-04T10:30:19.281Z,105
2017-10-04T10:31:19.934Z,95
2017-10-04T10:32:19.570Z,100
2017-10-04T10:33:19.253Z,110
2017-10-04T10:34:19.533Z,120
2017-10-04T10:35:19.570Z,130
2017-10-04T10:36:19.862Z,135
2017-10-04T10:37:19.489Z,110
2017-10-04T10:38:19.162Z,85
2017-10-04T10:39:19.524Z,90
2017-10-04T10:40:19.125Z,85
2017-10-04T10:41:19.404Z,90
2017-10-04T10:42:19.429Z,85
2017-10-04T10:43:19.386Z,75
2017-10-04T10:44:19.660Z,75
2017-10-04T10:45:19.082Z,75
2017-10-04T10:46:19.312Z,60
2017-10-04T10:47:19.620Z,55
2017-10-04T10:48:19.277Z,55
2017-10-04T10:49:19.281Z,70
2017-10-04T10:50:19.304Z,85
2017-10-04T10:51:19.249Z,125
2017-10-04T10:52:19.531Z,175
2017-10-04T10:53:19.205Z,240
2017-10-04T10:54:19.501Z,245
2017-10-04T10:55:19.172Z,185
2017-10-04T10:56:19.449Z,180
2017-10-04T10:57:19.446Z,170
2017-10-04T10:58:19.498Z,160
2017-10-04T10:59:19.115Z,200
2017-10-04T11:00:19.438Z,185
2017-10-04T11:01:19.403Z,155
2017-10-04T11:02:19.429Z,135
2017-10-04T11:03:18.699Z,140
2017-10-04T11:04:19.077Z,115
2017-10-04T11:05:19.307Z,100
2017-10-04T11:06:19.307Z,80
2017-10-04T11:07:18.628Z,100
2017-10-04T11:08:19.276Z,125
2017-10-04T11:09:19.239Z,125
2017-10-04T11:10:18.878Z,105
2017-10-04T11:11:18.892Z,90
2017-10-04T11:12:19.201Z,110
2017-10-04T11:13:19.183Z,110
2017-10-04T11:14:18.822Z,100
2017-10-04T11:15:18.501Z,100
2017-10-04T11:16:18.479Z,110
2017-10-04T11:17:19.085Z,130
2017-10-04T11:18:19.068Z,155
2017-10-04T11:19:19.108Z,205
2017-10-04T11:20:18.714Z,255
2017-10-04T11:21:18.372Z,275
2017-10-04T11:22:18.672Z,260
2017-10-04T11:23:18.684Z,225
2017-10-04T11:24:18.640Z,190
2017-10-04T11:25:18.644Z,165
2017-10-04T11:26:18.908Z,170
2017-10-04T11:27:18.925Z,155
2017-10-04T11:28:18.696Z,160
2017-10-04T11:29:18.560Z,150
2017-10-04T11:30:18.861Z,155
2017-10-04T11:31:18.862Z,170
2017-10-04T11:32:18.216Z,175
2017-10-04T11:33:18.515Z,170
2017-10-04T11:34:18.801Z,170
2017-10-04T11:35:18.800Z,170
2017-10-04T11:36:18.814Z,165
2017-10-04T11:37:18.753Z,160
2017-10-04T11:38:18.098Z,155
2017-10-04T11:39:18.711Z,155
2017-10-04T11:40:18.697Z,160
2017-10-04T11:41:18.062Z,155
2017-10-04T11:42:18.066Z,145
2017-10-04T11:43:18.023Z,140
2017-10-04T11:44:18.314Z,150
2017-10-04T11:45:18.586Z,155
2017-10-04T11:46:18.263Z,155
2017-10-04T11:47:18.229Z,155
2017-10-04T11:48:18.260Z,160
2017-10-04T11:49:18.513Z,160
2017-10-04T11:50:18.260Z,150
2017-10-04T11:51:18.211Z,135
2017-10-04T11:52:17.897Z,125
2017-10-04T11:53:18.142Z,125
2017-10-04T11:54:18.417Z,125
2017-10-04T11:55:18.422Z,120
2017-10-04T11:56:18.122Z,115
2017-10-04T11:57:18.390Z,120
2017-10-04T11:58:17.796Z,115
2017-10-04T11:59:18.064Z,105
2017-10-04T12:00:18.021Z,95
2017-10-04T12:01:18.315Z,90
2017-10-04T12:02:18.314Z,80
2017-10-04T12:03:18.315Z,75
2017-10-04T12:04:18.262Z,75
2017-10-04T12:05:18.254Z,80
2017-10-04T12:06:18.236Z,75
2017-10-04T12:07:18.248Z,70
2017-10-04T12:08:17.917Z,65
2017-10-04T12:09:18.197Z,55
2017-10-04T12:10:17.945Z,50
2017-10-04T12:11:17.891Z,50
2017-10-04T12:12:18.138Z,45
2017-10-04T12:13:17.844Z,45
2017-10-04T12:14:17.785Z,50
2017-10-04T12:15:18.071Z,55
2017-10-04T12:16:17.744Z,45
2017-10-04T12:17:17.732Z,45
2017-10-04T12:18:18.025Z,45
2017-10-04T12:19:18.008Z,40
2017-10-04T12:20:17.712Z,40
2017-10-04T12:21:17.964Z,40
2017-10-04T12:22:17.962Z,45
2017-10-04T12:23:17.315Z,45
2017-10-04T12:24:17.390Z,45
2017-10-04T12:25:17.884Z,45
2017-10-04T12:26:17.886Z,50
2017-10-04T12:27:17.541Z,55
2017-10-04T12:28:17.233Z,65
2017-10-04T12:29:17.511Z,70
2017-10-04T12:30:17.177Z,70
2017-10-04T12:31:17.170Z,75
2017-10-04T12:32:17.773Z,80
2017-10-04T12:33:17.143Z,80
2017-10-04T12:34:17.411Z,75
2017-10-04T12:35:17.420Z,70
2017-10-04T12:36:17.081Z,65
2017-10-04T12:37:17.378Z,65
2017-10-04T12:38:17.364Z,65
2017-10-04T12:39:17.649Z,65
2017-10-04T12:40:17.634Z,65
2017-10-04T12:41:17.635Z,70
2017-10-04T12:42:17.300Z,75
2017-10-04T12:43:17.587Z,75
2017-10-04T12:44:17.535Z,80
2017-10-04T12:45:17.540Z,85
2017-10-04T12:46:17.222Z,80
2017-10-04T12:47:17.512Z,80
2017-10-04T12:48:17.262Z,70
2017-10-04T12:49:17.161Z,65
2017-10-04T12:50:17.453Z,70
2017-10-04T12:51:16.814Z,70
2017-10-04T12:52:17.121Z,70
2017-10-04T12:53:17.081Z,65
2017-10-04T12:54:17.073Z,60
2017-10-04T12:55:17.069Z,60
2017-10-04T12:56:17.353Z,65
2017-10-04T12:57:16.764Z,65
2017-10-04T12:58:16.693Z,65
2017-10-04T12:59:17.286Z,65
2017-10-04T13:00:17.280Z,70
2017-10-04T13:01:16.643Z,75
2017-10-04T13:02:16.942Z,75
2017-10-04T13:03:16.601Z,75
2017-10-04T13:04:16.941Z,75
2017-10-04T13:05:16.873Z,75
2017-10-04T13:06:16.566Z,75
2017-10-04T13:07:16.882Z,75
2017-10-04T13:08:16.927Z,75
2017-10-04T13:09:17.132Z,70
2017-10-04T13:10:16.781Z,75
2017-10-04T13:11:17.094Z,70
2017-10-04T13:12:16.753Z,70
2017-10-04T13:13:17.043Z,75
2017-10-04T13:14:16.413Z,70
2017-10-04T13:15:16.726Z,70
2017-10-04T13:16:16.997Z,60
2017-10-04T13:17:16.375Z,55
2017-10-04T13:18:16.951Z,50
2017-10-04T13:19:16.960Z,50
2017-10-04T13:20:16.934Z,55
2017-10-04T13:21:16.914Z,55
2017-10-04T13:22:16.677Z,60
2017-10-04T13:23:16.882Z,65
2017-10-04T13:24:16.873Z,60
2017-10-04T13:25:16.831Z,60
2017-10-04T13:26:16.861Z,60
2017-10-04T13:27:16.577Z,55
2017-10-04T13:28:16.784Z,50
2017-10-04T13:29:16.141Z,50
2017-10-04T13:30:16.495Z,55
2017-10-04T13:31:16.865Z,60
2017-10-04T13:32:16.751Z,65
2017-10-04T13:33:16.776Z,70
2017-10-04T13:34:16.672Z,70
2017-10-04T13:35:16.663Z,75
2017-10-04T13:36:16.628Z,80
2017-10-04T13:37:16.616Z,80
2017-10-04T13:38:16.603Z,80
2017-10-04T13:39:16.340Z,75
2017-10-04T13:40:16.632Z,65
2017-10-04T13:41:16.565Z,65
2017-10-04T13:42:16.544Z,65
2017-10-04T13:43:15.883Z,60
2017-10-04T13:44:16.167Z,50
2017-10-04T13:45:16.481Z,45
2017-10-04T13:46:16.211Z,35
2017-10-04T13:47:16.353Z,35
2017-10-04T13:48:16.520Z,40
2017-10-04T13:49:16.415Z,40
2017-10-04T13:50:16.413Z,35
2017-10-04T13:51:16.380Z,40
2017-10-04T13:52:16.391Z,40
2017-10-04T13:53:16.341Z,40
2017-10-04T13:54:16.332Z,40
2017-10-04T13:55:16.334Z,40
2017-10-04T13:56:15.983Z,40
2017-10-04T13:57:15.991Z,40
2017-10-04T13:58:15.611Z,40
2017-10-04T13:59:15.915Z,40
2017-10-04T14:00:15.620Z,40
2017-10-04T14:01:15.948Z,40
2017-10-04T14:02:15.864Z,40
2017-10-04T14:03:16.343Z,40
2017-10-04T14:04:16.313Z,35
2017-10-04T14:05:15.504Z,35
2017-10-04T14:06:15.835Z,30
2017-10-04T14:07:15.482Z,30
2017-10-04T14:08:15.861Z,30
2017-10-04T14:09:16.072Z,25
2017-10-04T14:10:16.022Z,20
2017-10-04T14:11:16.078Z,20
2017-10-04T14:12:15.761Z,25
2017-10-04T14:13:15.675Z,25
2017-10-04T14:14:15.721Z,20
2017-10-04T14:15:15.623Z,25
2017-10-04T14:16:15.945Z,20
2017-10-04T14:17:15.921Z,20
2017-10-04T14:18:15.574Z,20
2017-10-04T14:19:15.884Z,20
2017-10-04T14:20:15.572Z,20